Terminal Aerodrome Forecast
Issued by NWS

Home | Current Version | Previous Version | Text Only | Print | Product List | Glossary On
Versions: 1 2 3 4 5 6 7 8 9 10 11 12 13 14 15 16 17
649
FTAK31 PAJN 232322
TAFAJN
TAF
PAJN 232322Z 2400/2424 10007KT 1 1/2SM -SN BR BKN022 OVC035
     FM240100 11010KT 3SM -SN BKN025 OVC040
     FM241100 11010KT 1SM -SN BR BKN015 OVC035
     FM242100 12008KT 4SM -SN BR BKN025 OVC035=

USA.gov is the U.S. government's official web portal to all federal, state and local government web resources and services.